Time;durP1;ratioP1;P1;durP2;ratioP2;P2;SDS_P1;SDS_P2;PMS_P1;PMS_P2;Temp;Humidity;BMP_temperature;BMP_pressure;BME280_temperature;BME280_humidity;BME280_pressure;Samples;Min_cycle;Max_cycle;Signal;HPM_P1;HPM_P2
2024/04/02 00:00:08;;;;;;;1.60;0.98;;;10.00;99.90;;;;;;5072057;28;20023;-75
2024/04/02 00:02:34;;;;;;;3.08;1.20;;;10.00;99.90;;;;;;5074406;28;20032;-75
2024/04/02 00:04:59;;;;;;;2.75;1.20;;;9.90;99.90;;;;;;5073999;28;20020;-75
2024/04/02 00:07:25;;;;;;;2.90;1.00;;;9.90;99.90;;;;;;5073802;28;20478;-75
2024/04/02 00:09:50;;;;;;;5.90;1.30;;;9.90;99.90;;;;;;5073619;28;20032;-75
2024/04/02 00:12:16;;;;;;;2.92;0.95;;;9.90;99.90;;;;;;5073214;28;20222;-75
2024/04/02 00:14:42;;;;;;;3.85;1.30;;;9.90;99.90;;;;;;5073867;28;20024;-76
2024/04/02 00:17:07;;;;;;;2.70;1.00;;;9.90;99.90;;;;;;5073076;28;20024;-76
2024/04/02 00:19:33;;;;;;;2.70;1.30;;;9.80;99.90;;;;;;5073510;28;20101;-75
2024/04/02 00:21:59;;;;;;;1.80;1.10;;;9.80;99.90;;;;;;5073171;28;20503;-75
2024/04/02 00:24:24;;;;;;;1.23;1.00;;;9.80;99.90;;;;;;5073514;28;20119;-75
2024/04/02 00:26:50;;;;;;;2.17;1.00;;;9.80;99.90;;;;;;5073062;28;20031;-75
2024/04/02 00:29:17;;;;;;;2.08;1.00;;;9.70;99.90;;;;;;5073382;28;20026;-75
2024/04/02 00:31:43;;;;;;;3.03;1.08;;;9.70;99.90;;;;;;5071417;28;20036;-75
2024/04/02 00:34:08;;;;;;;2.47;1.40;;;9.70;99.90;;;;;;5073304;28;20017;-75
2024/04/02 00:36:34;;;;;;;2.60;0.90;;;9.70;99.90;;;;;;5072770;28;20433;-75
2024/04/02 00:39:00;;;;;;;2.50;1.00;;;9.60;99.90;;;;;;5073166;28;20029;-75
2024/04/02 00:41:25;;;;;;;2.03;1.00;;;9.60;99.90;;;;;;5072610;28;20088;-75
2024/04/02 00:43:51;;;;;;;2.13;1.10;;;9.60;99.90;;;;;;5072968;28;20489;-75
2024/04/02 00:46:17;;;;;;;3.05;1.02;;;9.60;99.90;;;;;;5072457;28;20119;-75
2024/04/02 00:48:42;;;;;;;3.15;0.85;;;9.60;99.90;;;;;;5072814;28;20016;-75
2024/04/02 00:51:08;;;;;;;2.97;0.98;;;9.50;99.90;;;;;;5070965;28;20040;-75
2024/04/02 00:53:34;;;;;;;1.98;1.13;;;9.50;99.90;;;;;;5072766;28;20024;-75
2024/04/02 00:56:01;;;;;;;1.73;1.05;;;9.50;99.90;;;;;;5072196;28;20017;-75
2024/04/02 00:58:27;;;;;;;1.83;1.00;;;9.50;99.90;;;;;;5072990;28;20029;-75
2024/04/02 01:00:56;;;;;;;3.05;1.02;;;9.50;99.90;;;;;;5072223;28;20032;-75
2024/04/02 01:03:21;;;;;;;1.98;0.90;;;9.50;99.90;;;;;;5073312;28;20028;-75
2024/04/02 01:05:48;;;;;;;1.80;0.90;;;9.50;99.90;;;;;;5072560;28;20024;-75
2024/04/02 01:08:13;;;;;;;2.03;1.10;;;9.50;99.90;;;;;;5073178;28;20115;-75
2024/04/02 01:10:40;;;;;;;1.33;0.95;;;9.50;99.90;;;;;;5072527;28;20066;-75
2024/04/02 01:13:05;;;;;;;2.90;1.20;;;9.50;99.90;;;;;;5072927;28;20056;-75
2024/04/02 01:15:31;;;;;;;1.52;1.00;;;9.50;99.90;;;;;;5071895;28;20414;-75
2024/04/02 01:17:57;;;;;;;1.85;1.15;;;9.50;99.90;;;;;;5072615;28;20035;-75
2024/04/02 01:20:22;;;;;;;2.15;1.15;;;9.50;99.90;;;;;;5071990;28;20020;-75
2024/04/02 01:22:50;;;;;;;2.00;0.98;;;9.50;99.90;;;;;;5072644;28;20012;-75
2024/04/02 01:25:20;;;;;;;2.58;1.20;;;9.50;99.90;;;;;;5070941;28;20040;-75
2024/04/02 01:27:46;;;;;;;2.17;1.20;;;9.50;99.90;;;;;;5071094;28;20054;-75
2024/04/02 01:30:12;;;;;;;3.92;1.20;;;9.50;99.90;;;;;;5070925;28;20020;-75
2024/04/02 01:32:37;;;;;;;3.92;1.00;;;9.40;99.90;;;;;;5071852;28;20024;-75
2024/04/02 01:35:03;;;;;;;2.05;0.90;;;9.40;99.90;;;;;;5072167;28;20466;-75
2024/04/02 01:37:29;;;;;;;1.98;1.25;;;9.40;99.90;;;;;;5071780;28;20021;-75
2024/04/02 01:39:54;;;;;;;2.35;1.40;;;9.40;99.90;;;;;;5072301;28;20048;-75
2024/04/02 01:42:22;;;;;;;3.08;1.40;;;9.30;99.90;;;;;;5071842;28;20257;-74
2024/04/02 01:44:47;;;;;;;1.95;1.30;;;9.30;99.90;;;;;;5072308;28;20032;-75
2024/04/02 01:47:13;;;;;;;3.45;1.17;;;9.30;99.90;;;;;;5071947;28;20029;-75
2024/04/02 01:49:39;;;;;;;2.95;1.20;;;9.30;99.90;;;;;;5074050;28;20052;-75
2024/04/02 01:52:05;;;;;;;1.55;1.10;;;9.30;99.90;;;;;;5076119;28;20021;-76
2024/04/02 01:54:30;;;;;;;2.03;1.08;;;9.30;99.90;;;;;;5077629;28;20431;-74
2024/04/02 01:56:56;;;;;;;2.13;1.02;;;9.20;99.90;;;;;;5075729;28;20047;-74
2024/04/02 01:59:22;;;;;;;5.55;1.27;;;9.20;99.90;;;;;;5075112;28;20016;-75
2024/04/02 02:01:47;;;;;;;1.92;1.15;;;9.20;99.90;;;;;;5072155;28;20020;-75
2024/04/02 02:04:13;;;;;;;1.90;1.15;;;9.10;99.90;;;;;;5072817;28;20081;-75
2024/04/02 02:06:39;;;;;;;3.20;1.38;;;9.20;99.90;;;;;;5074509;28;20020;-74
2024/04/02 02:09:07;;;;;;;3.97;1.30;;;9.20;99.90;;;;;;5072152;28;20032;-74
2024/04/02 02:11:33;;;;;;;2.97;1.08;;;9.20;99.90;;;;;;5070738;28;20044;-75
2024/04/02 02:13:59;;;;;;;3.40;1.35;;;9.20;99.90;;;;;;5073273;28;20044;-75
2024/04/02 02:16:26;;;;;;;3.05;1.30;;;9.20;99.90;;;;;;5072399;28;20032;-75
2024/04/02 02:18:54;;;;;;;3.22;1.15;;;9.10;99.90;;;;;;5073229;28;20094;-74
2024/04/02 02:21:19;;;;;;;1.95;1.10;;;9.20;99.90;;;;;;5073506;28;20028;-74
2024/04/02 02:23:46;;;;;;;2.50;1.30;;;9.10;99.90;;;;;;5074225;28;20021;-75
2024/04/02 02:26:12;;;;;;;2.60;1.20;;;9.10;99.90;;;;;;5073595;28;20032;-75
2024/04/02 02:28:38;;;;;;;5.82;1.38;;;9.10;99.90;;;;;;5072608;28;20363;-75
2024/04/02 02:31:03;;;;;;;2.25;1.15;;;9.00;99.90;;;;;;5072634;28;20016;-75
2024/04/02 02:33:29;;;;;;;4.88;1.33;;;9.00;99.90;;;;;;5074638;28;20021;-75
2024/04/02 02:35:55;;;;;;;2.42;1.27;;;9.00;99.90;;;;;;5074625;28;20682;-76
2024/04/02 02:38:20;;;;;;;2.05;1.05;;;9.00;99.90;;;;;;5074200;28;20107;-75
2024/04/02 02:40:46;;;;;;;3.55;1.40;;;9.00;99.90;;;;;;5072608;28;20374;-75
2024/04/02 02:43:12;;;;;;;2.83;1.33;;;9.00;99.90;;;;;;5073157;28;20033;-74
2024/04/02 02:45:37;;;;;;;3.40;1.33;;;9.00;99.90;;;;;;5072181;28;20021;-75
2024/04/02 02:48:06;;;;;;;3.28;1.35;;;9.00;99.90;;;;;;5071865;28;20537;-74
2024/04/02 02:50:32;;;;;;;5.35;1.23;;;8.90;99.90;;;;;;5071878;28;20045;-75
2024/04/02 02:52:57;;;;;;;4.07;1.27;;;8.90;99.90;;;;;;5071480;28;20020;-75
2024/04/02 02:55:23;;;;;;;2.05;1.27;;;8.90;99.90;;;;;;5072171;28;20104;-75
2024/04/02 02:57:48;;;;;;;3.10;1.10;;;8.90;99.90;;;;;;5070930;28;20103;-74
2024/04/02 03:00:15;;;;;;;3.55;1.50;;;8.90;99.90;;;;;;5071832;28;20481;-75
2024/04/02 03:02:41;;;;;;;3.08;1.27;;;8.80;99.90;;;;;;5070863;28;20557;-75
2024/04/02 03:05:06;;;;;;;2.45;1.20;;;8.80;99.90;;;;;;5070482;28;20115;-75
2024/04/02 03:07:32;;;;;;;3.90;1.30;;;8.80;99.90;;;;;;5070968;28;20063;-75
2024/04/02 03:09:57;;;;;;;3.22;1.30;;;8.80;99.90;;;;;;5071629;28;20025;-75
2024/04/02 03:12:23;;;;;;;7.25;1.60;;;8.90;99.90;;;;;;5070589;28;20108;-75
2024/04/02 03:14:49;;;;;;;4.95;1.55;;;8.80;99.90;;;;;;5072338;28;20359;-75
2024/04/02 03:17:14;;;;;;;2.15;1.13;;;8.90;99.90;;;;;;5074076;28;20028;-75
2024/04/02 03:19:40;;;;;;;2.75;1.35;;;8.80;99.90;;;;;;5075232;28;20036;-75
2024/04/02 03:22:06;;;;;;;3.60;1.30;;;8.80;99.90;;;;;;5074044;28;20024;-75
2024/04/02 03:24:31;;;;;;;3.75;1.45;;;8.80;99.90;;;;;;5074987;28;20056;-75
2024/04/02 03:26:57;;;;;;;2.42;1.30;;;8.80;99.90;;;;;;5073877;28;20024;-75
2024/04/02 03:29:22;;;;;;;5.10;1.38;;;8.80;99.90;;;;;;5074738;28;20025;-75
2024/04/02 03:31:48;;;;;;;4.30;1.50;;;8.80;99.90;;;;;;5073677;28;20036;-75
2024/04/02 03:34:14;;;;;;;7.10;1.45;;;8.80;99.90;;;;;;5074744;28;20119;-75
2024/04/02 03:36:40;;;;;;;3.03;1.30;;;8.80;99.90;;;;;;5073520;28;20073;-75
2024/04/02 03:39:05;;;;;;;2.63;1.08;;;8.80;99.90;;;;;;5073428;28;20016;-75
2024/04/02 03:41:31;;;;;;;2.85;1.35;;;8.80;99.90;;;;;;5073962;28;20485;-75
2024/04/02 03:43:56;;;;;;;4.32;1.45;;;8.80;99.90;;;;;;5074456;28;20031;-75
2024/04/02 03:46:22;;;;;;;4.72;1.75;;;8.80;99.90;;;;;;5073295;28;20386;-75
2024/04/02 03:48:51;;;;;;;4.15;1.50;;;8.80;99.90;;;;;;5074075;28;20029;-75
2024/04/02 03:51:16;;;;;;;4.63;1.27;;;8.80;99.90;;;;;;5073366;28;20556;-75
2024/04/02 03:53:42;;;;;;;5.53;1.58;;;8.80;99.90;;;;;;5073989;28;20020;-75
2024/04/02 03:56:08;;;;;;;4.90;1.60;;;8.80;99.90;;;;;;5073619;28;20028;-75
2024/04/02 03:58:33;;;;;;;3.80;1.77;;;8.80;99.90;;;;;;5074023;28;20028;-75
2024/04/02 04:00:59;;;;;;;5.05;1.40;;;8.80;99.90;;;;;;5073606;28;20389;-75
2024/04/02 04:03:26;;;;;;;4.75;1.35;;;8.70;99.90;;;;;;5074204;28;20389;-75
2024/04/02 04:05:59;;;;;;;6.13;1.52;;;8.80;99.90;;;;;;5073821;28;20452;-76
2024/04/02 04:08:28;;;;;;;5.75;1.70;;;8.80;99.90;;;;;;5073875;28;20060;-75
2024/04/02 04:10:54;;;;;;;3.03;1.50;;;8.70;99.90;;;;;;5073455;28;20103;-75
2024/04/02 04:13:20;;;;;;;3.97;1.58;;;8.80;99.90;;;;;;5073767;28;20111;-75
2024/04/02 04:15:57;;;;;;;3.30;1.38;;;8.70;99.90;;;;;;5073916;28;20385;-75
2024/04/02 04:18:24;;;;;;;3.72;1.40;;;8.80;99.90;;;;;;5073585;28;20032;-75
2024/04/02 04:21:08;;;;;;;3.13;1.30;;;8.70;99.90;;;;;;5073603;28;20032;-75
2024/04/02 04:23:33;;;;;;;6.45;1.48;;;8.70;99.90;;;;;;5072110;28;20029;-75
2024/04/02 04:26:01;;;;;;;4.30;1.58;;;8.70;99.90;;;;;;5072988;28;20513;-75
2024/04/02 04:28:27;;;;;;;5.47;1.48;;;8.70;99.90;;;;;;5074599;28;20025;-75
2024/04/02 04:30:56;;;;;;;3.17;1.40;;;8.70;99.90;;;;;;5072089;28;20047;-75
2024/04/02 04:33:23;;;;;;;5.70;1.48;;;8.70;99.90;;;;;;5072873;28;20266;-75
2024/04/02 04:35:49;;;;;;;5.97;1.90;;;8.70;99.90;;;;;;5073233;28;20492;-75
2024/04/02 04:38:18;;;;;;;4.22;1.63;;;8.70;99.90;;;;;;5072635;28;20051;-75
2024/04/02 04:40:44;;;;;;;10.82;2.25;;;8.70;99.90;;;;;;5073406;28;20276;-75
2024/04/02 04:43:13;;;;;;;6.10;1.90;;;8.70;99.90;;;;;;5072783;28;20029;-75
2024/04/02 04:45:39;;;;;;;3.95;1.40;;;8.70;99.90;;;;;;5073482;28;20017;-75
2024/04/02 04:48:08;;;;;;;4.65;1.67;;;8.70;99.90;;;;;;5072402;28;20499;-75
2024/04/02 04:50:34;;;;;;;2.80;1.20;;;8.70;99.90;;;;;;5072711;28;20048;-75
2024/04/02 04:53:00;;;;;;;4.15;1.52;;;8.60;99.90;;;;;;5072115;28;20033;-75
2024/04/02 04:55:31;;;;;;;3.90;1.48;;;8.70;99.90;;;;;;5071735;28;20086;-75
2024/04/02 04:57:59;;;;;;;3.63;1.00;;;8.70;99.90;;;;;;5072169;28;20520;-75
2024/04/02 05:00:26;;;;;;;4.38;1.50;;;8.70;99.90;;;;;;5072911;28;20021;-75
2024/04/02 05:02:51;;;;;;;4.70;1.40;;;8.70;99.90;;;;;;5072102;28;20031;-75
2024/04/02 05:05:17;;;;;;;4.25;1.27;;;8.70;99.90;;;;;;5072838;28;20021;-75
2024/04/02 05:07:55;;;;;;;3.72;1.25;;;8.70;99.90;;;;;;5071915;28;20040;-75
2024/04/02 05:10:23;;;;;;;4.60;1.85;;;8.80;99.90;;;;;;5072809;28;20531;-75
2024/04/02 05:12:49;;;;;;;5.00;1.38;;;8.80;99.90;;;;;;5071929;28;20033;-75
2024/04/02 05:15:14;;;;;;;4.45;1.65;;;8.80;99.90;;;;;;5072775;28;20090;-75
2024/04/02 05:17:40;;;;;;;3.50;1.23;;;8.80;99.90;;;;;;5072353;28;20043;-75
2024/04/02 05:20:06;;;;;;;4.20;1.50;;;8.80;99.90;;;;;;5072580;28;20597;-75
2024/04/02 05:22:32;;;;;;;4.60;1.77;;;8.70;99.90;;;;;;5070731;28;20029;-75
2024/04/02 05:24:57;;;;;;;4.45;1.75;;;8.80;99.90;;;;;;5072317;28;20077;-75
2024/04/02 05:27:23;;;;;;;3.42;1.30;;;8.80;99.90;;;;;;5072060;28;20398;-75
2024/04/02 05:29:49;;;;;;;5.53;1.60;;;8.80;99.90;;;;;;5072465;28;20024;-75
2024/04/02 05:32:14;;;;;;;2.58;1.35;;;8.80;99.90;;;;;;5071949;28;20028;-75
2024/04/02 05:34:40;;;;;;;5.28;1.45;;;8.80;99.90;;;;;;5070811;28;20029;-75
2024/04/02 05:37:05;;;;;;;5.85;1.52;;;8.90;99.90;;;;;;5071306;28;20078;-75
2024/04/02 05:39:31;;;;;;;4.72;1.60;;;8.90;99.90;;;;;;5072208;28;20023;-75
2024/04/02 05:41:57;;;;;;;2.72;1.48;;;8.90;99.90;;;;;;5070429;28;20052;-75
2024/04/02 05:44:22;;;;;;;5.78;1.70;;;8.90;99.90;;;;;;5072105;28;20081;-75
2024/04/02 05:46:48;;;;;;;5.95;1.67;;;9.00;99.90;;;;;;5070351;28;20448;-75
2024/04/02 05:49:14;;;;;;;4.57;1.83;;;9.00;99.90;;;;;;5071993;28;20466;-75
2024/04/02 05:51:40;;;;;;;4.93;1.45;;;9.00;99.90;;;;;;5071336;28;20060;-76
2024/04/02 05:54:05;;;;;;;4.55;1.60;;;9.00;99.90;;;;;;5071961;28;20462;-75
2024/04/02 05:56:31;;;;;;;6.00;1.60;;;9.00;99.90;;;;;;5070066;28;20032;-75
2024/04/02 05:58:56;;;;;;;3.55;1.65;;;9.10;99.90;;;;;;5070653;28;20021;-75
2024/04/02 06:01:25;;;;;;;4.28;1.50;;;9.10;99.90;;;;;;5071509;28;20362;-75
2024/04/02 06:03:51;;;;;;;7.95;1.80;;;9.10;99.90;;;;;;5071740;28;20478;-75
2024/04/02 06:06:17;;;;;;;7.45;1.73;;;9.10;99.90;;;;;;5070352;28;20027;-75
2024/04/02 06:08:42;;;;;;;5.85;1.83;;;9.10;99.90;;;;;;5071596;28;20385;-75
2024/04/02 06:11:08;;;;;;;4.35;1.58;;;9.10;99.90;;;;;;5071858;28;20024;-75
2024/04/02 06:13:34;;;;;;;6.15;1.70;;;9.10;99.90;;;;;;5071249;28;20024;-75
2024/04/02 06:15:59;;;;;;;6.45;1.95;;;9.10;99.90;;;;;;5072011;28;20107;-76
2024/04/02 06:18:25;;;;;;;6.38;1.90;;;9.20;99.90;;;;;;5071375;28;20027;-75
2024/04/02 06:20:58;;;;;;;6.22;1.98;;;9.10;99.90;;;;;;5071671;28;20032;-75
2024/04/02 06:23:24;;;;;;;3.75;1.58;;;9.10;99.90;;;;;;5070206;28;20030;-75
2024/04/02 06:25:49;;;;;;;6.60;1.77;;;9.20;99.90;;;;;;5071806;28;20039;-75
2024/04/02 06:28:15;;;;;;;3.47;1.55;;;9.20;99.90;;;;;;5070459;28;20017;-75
2024/04/02 06:30:42;;;;;;;5.47;2.38;;;9.30;99.90;;;;;;5071668;28;20025;-76
2024/04/02 06:33:07;;;;;;;5.15;1.90;;;9.30;99.90;;;;;;5071426;28;20032;-75
2024/04/02 06:35:33;;;;;;;4.43;1.60;;;9.30;99.90;;;;;;5071441;28;20071;-75
2024/04/02 06:37:59;;;;;;;6.18;1.90;;;9.30;99.90;;;;;;5071568;28;20025;-76
2024/04/02 06:40:24;;;;;;;7.90;1.85;;;9.30;99.90;;;;;;5071593;28;20020;-75
2024/04/02 06:42:50;;;;;;;6.13;2.03;;;9.40;99.90;;;;;;5069941;28;20032;-76
2024/04/02 06:45:16;;;;;;;6.68;1.98;;;9.50;99.90;;;;;;5070366;28;20021;-76
2024/04/02 06:47:41;;;;;;;6.47;2.20;;;9.50;99.90;;;;;;5069875;28;20029;-76
2024/04/02 06:50:07;;;;;;;6.03;1.90;;;9.60;99.90;;;;;;5072559;28;20047;-76
2024/04/02 06:52:32;;;;;;;6.97;2.17;;;9.60;99.90;;;;;;5074941;28;20162;-75
2024/04/02 06:54:58;;;;;;;6.00;1.80;;;9.70;99.90;;;;;;5075233;28;20108;-75
2024/04/02 06:57:24;;;;;;;6.10;1.50;;;9.70;99.90;;;;;;5074743;28;20086;-75
2024/04/02 06:59:49;;;;;;;7.15;2.13;;;9.70;99.90;;;;;;5074998;28;20028;-75
2024/04/02 07:02:15;;;;;;;8.50;2.10;;;9.80;99.90;;;;;;5074765;28;20024;-75
2024/04/02 07:04:41;;;;;;;7.07;1.95;;;9.80;99.90;;;;;;5075224;28;20028;-75
2024/04/02 07:07:06;;;;;;;8.93;2.38;;;9.80;99.90;;;;;;5074548;28;20170;-75
2024/04/02 07:09:33;;;;;;;8.15;2.67;;;9.90;99.90;;;;;;5074957;28;20409;-76
2024/04/02 07:11:59;;;;;;;5.50;2.22;;;9.80;99.90;;;;;;5074784;28;20165;-75
2024/04/02 07:14:25;;;;;;;10.60;2.85;;;9.90;99.90;;;;;;5074869;28;20025;-75
2024/04/02 07:16:53;;;;;;;9.40;2.55;;;9.90;99.90;;;;;;5074375;28;20030;-75
2024/04/02 07:19:19;;;;;;;7.78;2.45;;;9.90;99.90;;;;;;5075028;28;20430;-76
2024/04/02 07:21:44;;;;;;;10.15;2.47;;;9.90;99.90;;;;;;5073927;28;20043;-75
2024/04/02 07:24:10;;;;;;;7.75;2.20;;;10.00;99.90;;;;;;5075094;28;20505;-75
2024/04/02 07:26:36;;;;;;;7.90;2.72;;;10.00;99.90;;;;;;5074443;28;20107;-75
2024/04/02 07:29:01;;;;;;;11.43;2.50;;;10.00;99.90;;;;;;5073635;28;20024;-75
2024/04/02 07:31:28;;;;;;;7.03;2.38;;;10.10;99.90;;;;;;5074556;28;20016;-75
2024/04/02 07:33:56;;;;;;;8.43;2.35;;;10.10;99.90;;;;;;5073018;28;20013;-76
2024/04/02 07:36:21;;;;;;;10.18;3.00;;;10.10;99.90;;;;;;5074608;28;20021;-75
2024/04/02 07:38:47;;;;;;;7.18;3.08;;;10.10;99.90;;;;;;5074096;28;20021;-76
2024/04/02 07:41:13;;;;;;;10.88;2.95;;;10.20;99.90;;;;;;5074460;28;20024;-76
2024/04/02 07:43:38;;;;;;;10.20;2.70;;;10.20;99.90;;;;;;5074076;28;20041;-76
2024/04/02 07:46:04;;;;;;;11.55;2.97;;;10.20;99.90;;;;;;5074199;28;20492;-76
2024/04/02 07:48:30;;;;;;;13.07;3.08;;;10.20;99.90;;;;;;5073983;28;20085;-76
2024/04/02 07:50:56;;;;;;;8.70;2.40;;;10.20;99.90;;;;;;5073989;28;20434;-76
2024/04/02 07:53:23;;;;;;;7.28;2.40;;;10.20;99.90;;;;;;5074100;28;20028;-76
2024/04/02 07:55:50;;;;;;;11.35;2.75;;;10.20;99.90;;;;;;5073085;28;20103;-76
2024/04/02 07:58:15;;;;;;;8.73;2.22;;;10.30;99.90;;;;;;5072138;28;20116;-75
2024/04/02 08:00:44;;;;;;;8.13;2.58;;;10.30;99.90;;;;;;5073664;28;20096;-76
2024/04/02 08:03:10;;;;;;;8.98;2.38;;;10.30;99.90;;;;;;5073696;28;20398;-75
2024/04/02 08:05:36;;;;;;;11.40;2.65;;;10.30;99.90;;;;;;5073977;28;20023;-76
2024/04/02 08:08:03;;;;;;;7.57;2.25;;;10.30;99.90;;;;;;5075301;28;20067;-76
2024/04/02 08:10:29;;;;;;;8.65;2.30;;;10.40;99.90;;;;;;5074620;28;20021;-76
2024/04/02 08:12:54;;;;;;;11.40;2.20;;;10.40;99.90;;;;;;5073597;28;20025;-75
2024/04/02 08:15:20;;;;;;;7.78;2.08;;;10.40;99.90;;;;;;5079647;28;20082;-75
2024/04/02 08:17:45;;;;;;;10.02;2.30;;;10.40;99.90;;;;;;5073354;28;20013;-75
2024/04/02 08:20:11;;;;;;;9.20;2.03;;;10.40;99.90;;;;;;5074143;28;20056;-77
2024/04/02 08:22:37;;;;;;;8.73;2.42;;;10.40;99.90;;;;;;5073385;28;20036;-76
2024/04/02 08:25:03;;;;;;;10.30;2.22;;;10.40;99.90;;;;;;5074429;28;20087;-75
2024/04/02 08:27:29;;;;;;;10.50;2.38;;;10.40;99.90;;;;;;5076108;28;20059;-75
2024/04/02 08:29:54;;;;;;;8.15;2.30;;;10.40;99.90;;;;;;5075867;28;20024;-75
2024/04/02 08:32:22;;;;;;;8.48;2.33;;;10.40;99.90;;;;;;5076654;28;20033;-75
2024/04/02 08:34:48;;;;;;;7.07;1.70;;;10.40;99.90;;;;;;5077024;28;20473;-75
2024/04/02 08:37:14;;;;;;;8.70;2.00;;;10.40;99.90;;;;;;5072993;28;20031;-78
2024/04/02 08:39:40;;;;;;;11.27;2.70;;;10.40;99.90;;;;;;5074106;28;20012;-76
2024/04/02 08:42:06;;;;;;;8.55;2.00;;;10.50;99.90;;;;;;5072906;28;20028;-76
2024/04/02 08:44:34;;;;;;;10.90;2.30;;;10.50;99.90;;;;;;5074122;28;20024;-76
2024/04/02 08:47:00;;;;;;;6.40;2.40;;;10.60;99.90;;;;;;5072975;28;20511;-76
2024/04/02 08:49:26;;;;;;;8.85;1.83;;;10.60;99.90;;;;;;5074204;28;20047;-76
2024/04/02 08:51:53;;;;;;;9.90;1.88;;;10.60;99.90;;;;;;5073181;28;20049;-76
2024/04/02 08:54:19;;;;;;;6.15;1.92;;;10.70;99.90;;;;;;5073709;28;20016;-76
2024/04/02 08:56:46;;;;;;;9.98;2.28;;;10.70;99.90;;;;;;5073214;28;20200;-76
2024/04/02 08:59:13;;;;;;;9.73;1.92;;;10.70;99.90;;;;;;5073323;28;20027;-76
2024/04/02 09:01:40;;;;;;;5.85;1.60;;;10.80;99.90;;;;;;5073080;28;20028;-76
2024/04/02 09:04:06;;;;;;;10.30;2.22;;;10.80;99.90;;;;;;5072570;28;20474;-76
2024/04/02 09:06:31;;;;;;;12.23;2.70;;;10.80;99.90;;;;;;5073168;28;20025;-77
2024/04/02 09:08:57;;;;;;;9.38;2.00;;;10.90;99.90;;;;;;5072573;28;20556;-76
2024/04/02 09:11:24;;;;;;;6.10;1.58;;;10.90;99.90;;;;;;5072700;28;20029;-76
2024/04/02 09:13:50;;;;;;;8.73;2.05;;;10.90;99.90;;;;;;5071880;28;20020;-77
2024/04/02 09:16:16;;;;;;;7.95;2.00;;;11.00;99.90;;;;;;5072853;28;20017;-76
2024/04/02 09:18:45;;;;;;;7.38;1.85;;;11.00;99.90;;;;;;5071975;28;20025;-76
2024/04/02 09:21:12;;;;;;;8.07;1.95;;;11.10;99.90;;;;;;5072909;28;20025;-76
2024/04/02 09:23:38;;;;;;;10.82;2.35;;;11.10;99.90;;;;;;5071744;28;20509;-77
2024/04/02 09:26:08;;;;;;;7.72;1.63;;;11.20;99.90;;;;;;5072834;28;20021;-76
2024/04/02 09:28:41;;;;;;;8.07;2.33;;;11.20;99.90;;;;;;5071765;28;20028;-77
2024/04/02 09:31:07;;;;;;;9.07;1.55;;;11.20;99.90;;;;;;5072556;28;20024;-77
2024/04/02 09:33:36;;;;;;;6.15;1.70;;;11.30;99.90;;;;;;5071630;28;20131;-76
2024/04/02 09:36:06;;;;;;;6.20;1.73;;;11.40;99.90;;;;;;5072679;28;20174;-76
2024/04/02 09:38:36;;;;;;;8.40;1.70;;;11.40;99.90;;;;;;5071955;28;20016;-76
2024/04/02 09:41:03;;;;;;;11.55;2.15;;;11.40;99.90;;;;;;5072668;28;20362;-76
2024/04/02 09:43:31;;;;;;;8.35;1.85;;;11.40;99.90;;;;;;5070383;28;20472;-77
2024/04/02 09:46:07;;;;;;;8.45;1.70;;;11.40;99.90;;;;;;5072342;28;20028;-77
2024/04/02 09:48:42;;;;;;;8.02;1.95;;;11.50;99.90;;;;;;5071703;28;20031;-76
2024/04/02 09:51:09;;;;;;;14.15;1.85;;;11.50;99.90;;;;;;5072287;28;20482;-76
2024/04/02 09:53:36;;;;;;;6.82;1.60;;;11.50;99.90;;;;;;5071844;28;20017;-76
2024/04/02 09:56:03;;;;;;;8.80;1.77;;;11.70;99.90;;;;;;5072494;28;20028;-76
2024/04/02 09:58:29;;;;;;;8.63;1.67;;;11.80;99.90;;;;;;5071682;28;20031;-76
2024/04/02 10:00:55;;;;;;;7.25;1.80;;;11.90;99.90;;;;;;5072696;28;20017;-76
2024/04/02 10:03:24;;;;;;;8.43;1.95;;;11.90;99.90;;;;;;5071642;28;20029;-77
2024/04/02 10:05:51;;;;;;;8.23;1.80;;;12.00;99.90;;;;;;5072167;28;20032;-76
2024/04/02 10:08:17;;;;;;;8.70;2.10;;;12.00;99.90;;;;;;5071340;28;20104;-77
2024/04/02 10:10:45;;;;;;;8.48;1.85;;;12.00;99.90;;;;;;5072299;28;20056;-76
2024/04/02 10:13:11;;;;;;;5.90;1.40;;;12.10;99.90;;;;;;5071268;28;20028;-77
2024/04/02 10:15:37;;;;;;;6.95;1.33;;;12.30;99.90;;;;;;5072341;28;20059;-77
2024/04/02 10:18:03;;;;;;;10.35;1.88;;;12.40;99.90;;;;;;5071529;28;20037;-76
2024/04/02 10:20:31;;;;;;;6.65;1.48;;;12.40;99.90;;;;;;5071026;28;20021;-76
2024/04/02 10:22:58;;;;;;;7.60;1.75;;;12.50;99.90;;;;;;5071462;28;20059;-76
2024/04/02 10:25:25;;;;;;;6.43;1.60;;;12.50;99.90;;;;;;5075958;28;20024;-76
2024/04/02 10:27:53;;;;;;;6.20;1.65;;;12.50;99.90;;;;;;5075563;28;20079;-76
2024/04/02 10:30:26;;;;;;;12.50;2.10;;;12.50;99.90;;;;;;5076592;28;20023;-76
2024/04/02 10:32:54;;;;;;;6.05;1.45;;;12.50;99.90;;;;;;5075822;28;20039;-77
2024/04/02 10:35:25;;;;;;;4.93;1.60;;;12.40;99.90;;;;;;5076262;28;20021;-76
2024/04/02 10:37:52;;;;;;;6.40;1.77;;;12.30;99.90;;;;;;5075338;28;20070;-76
2024/04/02 10:40:19;;;;;;;6.95;1.77;;;12.10;99.90;;;;;;5076158;28;20100;-76
2024/04/02 10:42:49;;;;;;;6.60;1.75;;;12.00;99.90;;;;;;5075208;28;20036;-76
2024/04/02 10:45:16;;;;;;;8.48;1.60;;;11.90;99.90;;;;;;5075849;28;20028;-76
2024/04/02 10:47:52;;;;;;;5.93;1.50;;;11.80;99.90;;;;;;5075114;28;20025;-76
2024/04/02 10:50:22;;;;;;;5.15;1.52;;;11.80;99.90;;;;;;5075698;28;20041;-76
2024/04/02 10:52:48;;;;;;;5.87;1.63;;;11.70;99.90;;;;;;5074821;28;20210;-77
2024/04/02 10:55:14;;;;;;;6.50;1.35;;;11.60;99.90;;;;;;5075671;28;20133;-76
2024/04/02 10:57:40;;;;;;;8.77;1.70;;;11.50;99.90;;;;;;5074635;28;20052;-76
2024/04/02 11:00:14;;;;;;;7.55;1.40;;;11.50;99.90;;;;;;5075127;28;20044;-76
2024/04/02 11:02:41;;;;;;;10.63;2.53;;;11.40;99.90;;;;;;5073552;28;20024;-76
2024/04/02 11:05:12;;;;;;;7.72;1.90;;;11.40;99.90;;;;;;5074980;28;20028;-76
2024/04/02 11:07:38;;;;;;;7.57;1.67;;;11.40;99.90;;;;;;5074879;28;20020;-76
2024/04/02 11:10:04;;;;;;;5.80;1.90;;;11.30;99.90;;;;;;5074940;28;20024;-76
2024/04/02 11:12:30;;;;;;;9.00;2.03;;;11.30;99.90;;;;;;5074433;28;20024;-76
2024/04/02 11:14:56;;;;;;;6.88;1.60;;;11.30;99.90;;;;;;5073670;28;20070;-76
2024/04/02 11:17:22;;;;;;;6.32;1.67;;;11.30;99.90;;;;;;5074751;28;20025;-76
2024/04/02 11:19:49;;;;;;;6.50;1.75;;;11.20;99.90;;;;;;5074706;28;20039;-77
2024/04/02 11:25:11;;;;;;;7.85;1.90;;;11.20;99.90;;;;;;5074807;28;20062;-76
2024/04/02 11:27:37;;;;;;;5.72;1.48;;;11.20;99.90;;;;;;5074415;28;20028;-76
2024/04/02 11:30:04;;;;;;;5.70;1.55;;;11.20;99.90;;;;;;5074625;28;20491;-76
2024/04/02 11:32:30;;;;;;;5.95;1.58;;;11.20;99.90;;;;;;5074129;28;20046;-76
2024/04/02 11:35:04;;;;;;;6.70;2.10;;;11.20;99.90;;;;;;5074299;28;20025;-76
2024/04/02 11:37:31;;;;;;;5.97;1.67;;;11.10;99.90;;;;;;5073979;28;20024;-76
2024/04/02 11:39:57;;;;;;;5.05;1.50;;;11.10;99.90;;;;;;5074808;28;20040;-76
2024/04/02 11:42:24;;;;;;;7.47;1.75;;;11.10;99.90;;;;;;5074419;28;20070;-76
2024/04/02 11:44:57;;;;;;;6.13;1.70;;;11.10;99.90;;;;;;5074201;28;20107;-77
2024/04/02 11:47:26;;;;;;;7.88;1.95;;;11.10;99.90;;;;;;5074517;28;20032;-76
2024/04/02 11:49:52;;;;;;;6.15;1.90;;;11.10;99.90;;;;;;5074031;28;20169;-76
2024/04/02 11:52:18;;;;;;;6.75;1.95;;;11.10;99.90;;;;;;5074399;28;20441;-76
2024/04/02 11:54:44;;;;;;;5.72;1.60;;;11.00;99.90;;;;;;5073926;28;20017;-76
2024/04/02 12:02:46;;;;;;;5.68;1.80;;;11.00;99.90;;;;;;5073939;28;20039;-77
2024/04/02 12:05:12;;;;;;;5.93;1.80;;;11.00;99.90;;;;;;5072644;28;20025;-76
2024/04/02 12:07:38;;;;;;;6.15;1.50;;;11.00;99.90;;;;;;5073526;28;20051;-76
2024/04/02 12:10:06;;;;;;;4.53;1.48;;;11.00;99.90;;;;;;5073809;28;20028;-76
2024/04/02 12:12:32;;;;;;;4.60;1.80;;;11.20;99.90;;;;;;5073689;28;20086;-75
2024/04/02 12:14:59;;;;;;;5.70;1.70;;;11.30;99.90;;;;;;5073725;28;20025;-75
2024/04/02 12:17:25;;;;;;;5.40;1.58;;;11.40;99.90;;;;;;5073952;28;20036;-76
2024/04/02 12:19:52;;;;;;;5.88;1.58;;;11.40;99.90;;;;;;5073134;28;20378;-76
2024/04/02 12:22:18;;;;;;;3.35;1.23;;;11.40;99.90;;;;;;5073887;28;20044;-76
2024/04/02 12:24:43;;;;;;;4.28;1.50;;;11.50;99.90;;;;;;5071416;28;20064;-76
2024/04/02 12:27:09;;;;;;;3.65;1.42;;;11.50;99.90;;;;;;5073218;28;20031;-75
2024/04/02 12:29:36;;;;;;;6.65;2.00;;;11.60;99.90;;;;;;5073426;28;20424;-75
2024/04/02 12:32:03;;;;;;;7.45;1.70;;;11.50;99.90;;;;;;5072690;28;20025;-75
2024/04/02 12:34:29;;;;;;;6.75;1.88;;;11.60;99.90;;;;;;5073439;28;20019;-76
2024/04/02 12:36:55;;;;;;;8.15;1.75;;;11.60;99.90;;;;;;5073788;28;20103;-76
2024/04/02 12:39:21;;;;;;;7.43;2.03;;;11.60;99.90;;;;;;5074493;28;20017;-75
2024/04/02 12:41:49;;;;;;;4.32;1.67;;;11.50;99.90;;;;;;5076378;28;20410;-75
2024/04/02 12:44:16;;;;;;;6.15;2.00;;;11.40;99.90;;;;;;5074885;28;20028;-75
2024/04/02 12:46:42;;;;;;;4.63;1.70;;;11.40;99.90;;;;;;5073115;28;20032;-75
2024/04/02 12:49:09;;;;;;;6.78;1.60;;;11.40;99.90;;;;;;5073575;28;20397;-75
2024/04/02 12:51:36;;;;;;;7.32;1.88;;;11.40;99.90;;;;;;5073873;28;20410;-75
2024/04/02 12:54:02;;;;;;;6.65;1.92;;;11.30;99.90;;;;;;5073231;28;20017;-76
2024/04/02 12:56:28;;;;;;;6.63;1.85;;;11.40;99.90;;;;;;5073295;28;20042;-75